createdAt,value
2022-10-06T00:01:09.619Z,16.98
2022-10-06T00:03:38.443Z,18.85
2022-10-06T00:06:06.828Z,20.92
2022-10-06T00:08:36.047Z,22.05
2022-10-06T00:11:03.639Z,20.48
2022-10-06T00:13:31.774Z,18.40
2022-10-06T00:16:00.065Z,24.05
2022-10-06T00:18:28.850Z,21.70
2022-10-06T00:20:58.165Z,19.80
2022-10-06T00:23:26.506Z,22.80
2022-10-06T00:25:53.624Z,23.17
2022-10-06T00:28:21.550Z,22.58
2022-10-06T00:30:48.828Z,21.45
2022-10-06T00:33:17.714Z,21.05
2022-10-06T00:35:47.499Z,23.33
2022-10-06T00:38:16.978Z,23.83
2022-10-06T00:40:46.261Z,25.15
2022-10-06T00:43:40.051Z,21.58
2022-10-06T00:46:18.088Z,21.50
2022-10-06T00:48:51.354Z,19.15
2022-10-06T00:51:21.213Z,28.08
2022-10-06T00:53:49.698Z,24.20
2022-10-06T00:56:16.887Z,27.15
2022-10-06T00:58:44.061Z,20.92
2022-10-06T01:01:12.502Z,23.55
2022-10-06T01:03:44.707Z,18.60
2022-10-06T01:06:11.978Z,21.95
2022-10-06T01:08:39.683Z,22.95
2022-10-06T01:11:13.167Z,22.05
2022-10-06T01:13:43.790Z,23.98
2022-10-06T01:16:24.343Z,19.90
2022-10-06T01:18:54.841Z,22.83
2022-10-06T01:21:38.491Z,25.02
2022-10-06T01:24:06.737Z,23.48
2022-10-06T01:26:37.934Z,20.27
2022-10-06T01:29:05.330Z,18.88
2022-10-06T01:31:33.246Z,22.38
2022-10-06T01:34:00.422Z,22.13
2022-10-06T01:36:28.477Z,24.35
2022-10-06T01:38:55.603Z,23.08
2022-10-06T01:41:24.780Z,23.77
2022-10-06T01:43:51.976Z,20.10
2022-10-06T01:46:19.224Z,21.50
2022-10-06T01:48:46.579Z,22.58
2022-10-06T01:51:16.152Z,26.45
2022-10-06T01:53:43.486Z,18.35
2022-10-06T01:56:10.620Z,20.88
2022-10-06T01:58:38.261Z,17.83
2022-10-06T02:01:08.758Z,23.13
2022-10-06T02:03:38.875Z,20.23
2022-10-06T02:06:07.044Z,17.42
2022-10-06T02:08:35.240Z,17.63
2022-10-06T02:11:09.326Z,17.65
2022-10-06T02:13:41.387Z,20.92
2022-10-06T02:16:09.385Z,21.35
2022-10-06T02:18:36.800Z,20.33
2022-10-06T02:21:04.955Z,21.45
2022-10-06T02:23:33.146Z,22.83
2022-10-06T02:26:02.283Z,23.15
2022-10-06T02:28:31.528Z,27.80
2022-10-06T02:31:08.328Z,25.23
2022-10-06T02:33:37.883Z,24.38
2022-10-06T02:36:07.218Z,27.42
2022-10-06T02:38:34.611Z,26.77
2022-10-06T02:41:06.243Z,26.25
2022-10-06T02:43:35.100Z,24.17
2022-10-06T02:46:05.105Z,27.50
2022-10-06T02:48:34.781Z,24.88
2022-10-06T02:51:15.862Z,23.38
2022-10-06T02:53:45.914Z,24.60
2022-10-06T02:56:16.410Z,26.75
2022-10-06T02:58:45.332Z,29.23
2022-10-06T03:01:20.998Z,25.35
2022-10-06T03:03:48.368Z,25.33
2022-10-06T03:06:25.036Z,22.13
2022-10-06T03:09:12.420Z,23.23
2022-10-06T03:11:43.633Z,22.45
2022-10-06T03:14:20.546Z,24.75
2022-10-06T03:16:51.794Z,23.80
2022-10-06T03:19:25.795Z,20.88
2022-10-06T03:21:53.926Z,25.20
2022-10-06T03:24:24.614Z,25.27
2022-10-06T03:26:55.522Z,23.10
2022-10-06T03:29:22.700Z,23.90
2022-10-06T03:31:54.398Z,21.27
2022-10-06T03:34:21.548Z,22.27
2022-10-06T03:36:48.795Z,22.98
2022-10-06T03:39:19.495Z,21.65
2022-10-06T03:41:46.911Z,28.02
2022-10-06T03:44:14.895Z,26.23
2022-10-06T03:46:43.524Z,20.20
2022-10-06T03:49:11.130Z,21.45
2022-10-06T03:51:40.741Z,22.83
2022-10-06T03:54:12.770Z,27.20
2022-10-06T03:56:43.073Z,21.98
2022-10-06T03:59:13.748Z,23.75
2022-10-06T04:01:46.001Z,26.10
2022-10-06T04:04:17.127Z,20.90
2022-10-06T04:06:47.895Z,23.90
2022-10-06T04:09:18.422Z,20.75
2022-10-06T04:11:45.692Z,25.40
2022-10-06T04:14:15.636Z,22.67
2022-10-06T04:16:48.120Z,24.13
2022-10-06T04:19:18.932Z,20.52
2022-10-06T04:21:49.641Z,21.77
2022-10-06T04:24:20.757Z,21.73
2022-10-06T04:26:49.998Z,22.13
2022-10-06T04:29:18.706Z,19.38
2022-10-06T04:31:50.560Z,18.88
2022-10-06T04:34:35.916Z,26.25
2022-10-06T04:37:04.042Z,25.60
2022-10-06T04:39:31.214Z,22.95
2022-10-06T04:41:58.468Z,24.63
2022-10-06T04:44:29.152Z,24.02
2022-10-06T04:47:00.469Z,25.15
2022-10-06T04:49:27.858Z,23.85
2022-10-06T04:51:56.610Z,27.23
2022-10-06T04:54:24.229Z,31.90
2022-10-06T04:56:56.611Z,28.92
2022-10-06T04:59:45.198Z,26.20
2022-10-06T05:02:14.294Z,27.40
2022-10-06T05:04:42.955Z,29.70
2022-10-06T05:07:10.726Z,34.08
2022-10-06T05:09:37.929Z,28.90
2022-10-06T05:12:05.242Z,26.00
2022-10-06T05:14:33.412Z,31.20
2022-10-06T05:17:00.925Z,34.90
2022-10-06T05:19:29.632Z,25.80
2022-10-06T05:21:57.407Z,26.80
2022-10-06T05:24:27.670Z,29.58
2022-10-06T05:26:58.309Z,28.73
2022-10-06T05:31:55.589Z,27.90
2022-10-06T05:34:23.307Z,29.88
2022-10-06T05:36:51.733Z,28.20
2022-10-06T05:39:18.858Z,29.05
2022-10-06T05:41:50.027Z,31.33
2022-10-06T05:44:17.432Z,28.20
2022-10-06T05:46:45.541Z,32.15
2022-10-06T05:49:13.416Z,33.35
2022-10-06T05:51:45.933Z,30.85
2022-10-06T05:54:24.014Z,33.13
2022-10-06T05:56:51.111Z,30.20
2022-10-06T05:59:18.333Z,31.80
2022-10-06T06:01:45.577Z,32.20
2022-10-06T06:04:30.495Z,35.47
2022-10-06T06:06:57.814Z,32.22
2022-10-06T06:09:28.658Z,28.42
2022-10-06T06:12:00.043Z,27.58
2022-10-06T06:15:08.545Z,33.40
2022-10-06T06:17:43.504Z,28.73
2022-10-06T06:20:10.755Z,27.92
2022-10-06T06:22:37.922Z,32.53
2022-10-06T06:25:06.763Z,28.77
2022-10-06T06:27:34.883Z,27.65
2022-10-06T06:30:02.721Z,28.20
2022-10-06T06:32:30.685Z,27.10
2022-10-06T06:34:59.427Z,27.08
2022-10-06T06:37:30.066Z,25.13
2022-10-06T06:39:57.294Z,27.52
2022-10-06T06:42:24.474Z,25.27
2022-10-06T06:45:05.906Z,21.80
2022-10-06T06:47:50.776Z,20.85
2022-10-06T06:50:17.966Z,18.13
2022-10-06T06:52:45.301Z,18.10
2022-10-06T06:55:15.062Z,19.17
2022-10-06T06:57:42.734Z,16.55
2022-10-06T07:00:10.388Z,14.57
2022-10-06T07:02:39.686Z,15.50
2022-10-06T07:05:07.100Z,15.60
2022-10-06T07:07:35.989Z,15.85
2022-10-06T07:10:03.947Z,13.05
2022-10-06T07:12:34.076Z,13.15
2022-10-06T07:15:19.864Z,19.67
2022-10-06T07:18:10.000Z,14.73
2022-10-06T07:20:56.357Z,18.70
2022-10-06T07:23:43.119Z,14.95
2022-10-06T07:26:15.060Z,14.88
2022-10-06T07:28:42.695Z,18.23
2022-10-06T07:31:11.082Z,16.42
2022-10-06T07:33:40.786Z,21.58
2022-10-06T07:36:09.704Z,23.15
2022-10-06T07:38:37.556Z,23.48
2022-10-06T07:41:19.060Z,25.83
2022-10-06T07:43:53.980Z,25.17
2022-10-06T07:46:22.078Z,31.58
2022-10-06T07:49:10.059Z,24.88
2022-10-06T07:51:37.253Z,26.52
2022-10-06T07:54:04.388Z,34.33
2022-10-06T07:56:55.386Z,26.70
2022-10-06T07:59:22.540Z,31.48
2022-10-06T08:01:51.288Z,31.05
2022-10-06T08:04:18.466Z,37.47
2022-10-06T08:06:47.759Z,33.38
2022-10-06T08:09:14.880Z,29.45
2022-10-06T08:11:42.021Z,35.20
2022-10-06T08:14:09.378Z,35.40
2022-10-06T08:16:36.551Z,34.83
2022-10-06T08:19:04.446Z,33.92
2022-10-06T08:21:34.375Z,31.73
2022-10-06T08:24:02.032Z,32.78
2022-10-06T08:26:30.942Z,32.17
2022-10-06T08:29:00.328Z,33.58
2022-10-06T08:31:27.571Z,34.03
2022-10-06T08:33:56.687Z,34.08
2022-10-06T08:36:31.053Z,32.78
2022-10-06T08:39:00.157Z,29.42
2022-10-06T08:41:46.596Z,33.88
2022-10-06T08:44:18.483Z,33.95
2022-10-06T08:46:57.098Z,33.75
2022-10-06T08:49:27.556Z,36.65
2022-10-06T08:52:20.780Z,33.80
2022-10-06T08:55:14.248Z,32.63
2022-10-06T08:58:18.823Z,30.92
2022-10-06T09:00:46.035Z,30.85
2022-10-06T09:03:23.961Z,32.78
2022-10-06T09:06:03.795Z,32.72
2022-10-06T09:08:49.371Z,32.53
2022-10-06T09:11:16.423Z,30.40
2022-10-06T09:13:55.014Z,35.95
2022-10-06T09:16:29.647Z,31.73
2022-10-06T09:19:24.778Z,28.65
2022-10-06T09:21:54.195Z,32.78
2022-10-06T09:24:34.435Z,26.13
2022-10-06T09:27:16.385Z,27.30
2022-10-06T09:29:43.652Z,28.02
2022-10-06T09:32:11.004Z,29.08
2022-10-06T09:34:40.889Z,26.65
2022-10-06T09:37:11.355Z,26.80
2022-10-06T09:39:40.668Z,27.52
2022-10-06T09:42:29.937Z,31.98
2022-10-06T09:45:01.609Z,27.98
2022-10-06T09:47:32.964Z,25.48
2022-10-06T09:50:12.137Z,27.95
2022-10-06T09:52:40.922Z,28.85
2022-10-06T09:55:13.619Z,25.15
2022-10-06T09:57:52.510Z,23.35
2022-10-06T10:00:46.833Z,26.55
2022-10-06T10:03:14.139Z,23.42
2022-10-06T10:06:03.701Z,22.45
2022-10-06T10:08:37.149Z,22.92
2022-10-06T10:11:42.305Z,25.75
2022-10-06T10:14:18.107Z,24.58
2022-10-06T10:16:53.098Z,24.20
2022-10-06T10:19:37.998Z,24.35
2022-10-06T10:22:05.257Z,32.85
2022-10-06T10:24:48.200Z,29.27
2022-10-06T10:27:26.124Z,25.98
2022-10-06T10:30:02.799Z,24.30
2022-10-06T10:33:01.388Z,26.67
2022-10-06T10:35:41.917Z,20.67
2022-10-06T10:38:15.585Z,22.17
2022-10-06T10:40:59.555Z,29.98
2022-10-06T10:43:46.683Z,20.67
2022-10-06T10:46:16.907Z,25.08
2022-10-06T10:48:53.400Z,22.13
2022-10-06T10:51:28.544Z,20.33
2022-10-06T10:53:58.293Z,24.85
2022-10-06T10:56:26.934Z,20.88
2022-10-06T10:58:59.377Z,17.13
2022-10-06T11:01:39.120Z,16.73
2022-10-06T11:04:11.731Z,16.52
2022-10-06T11:07:11.127Z,24.27
2022-10-06T11:09:59.016Z,23.00
2022-10-06T11:12:26.165Z,22.23
2022-10-06T11:15:17.262Z,19.00
2022-10-06T11:17:46.987Z,20.42
2022-10-06T11:20:38.419Z,23.10
2022-10-06T11:23:22.201Z,21.38
2022-10-06T11:26:07.212Z,21.10
2022-10-06T11:28:55.570Z,18.95
2022-10-06T11:31:45.913Z,19.08
2022-10-06T11:34:14.279Z,18.20
2022-10-06T11:37:19.501Z,16.70
2022-10-06T11:40:01.985Z,18.90
2022-10-06T11:42:42.382Z,22.45
2022-10-06T11:45:17.428Z,19.92
2022-10-06T11:48:02.835Z,16.63
2022-10-06T11:50:44.459Z,17.42
2022-10-06T11:53:37.060Z,15.52
2022-10-06T11:56:19.332Z,19.50
2022-10-06T11:58:52.473Z,16.15
2022-10-06T12:01:32.372Z,14.77
2022-10-06T12:04:08.603Z,14.80
2022-10-06T12:06:41.753Z,15.80
2022-10-06T12:09:23.782Z,15.85
2022-10-06T12:11:52.891Z,15.93
2022-10-06T12:16:38.090Z,14.82
2022-10-06T12:17:49.342Z,18.17
2022-10-06T12:20:51.301Z,13.68
2022-10-06T12:23:34.479Z,19.98
2022-10-06T12:26:21.473Z,14.18
2022-10-06T12:29:02.107Z,13.18
2022-10-06T12:31:37.400Z,12.68
2022-10-06T12:34:39.302Z,11.75
2022-10-06T12:37:32.668Z,16.30
2022-10-06T12:40:44.066Z,10.13
2022-10-06T12:43:27.554Z,12.90
2022-10-06T12:46:04.215Z,10.30
2022-10-06T12:48:57.679Z,11.95
2022-10-06T12:54:23.772Z,15.00
2022-10-06T12:57:01.836Z,10.48
2022-10-06T12:59:34.902Z,14.95
2022-10-06T13:02:08.103Z,13.88
2022-10-06T13:04:43.535Z,12.43
2022-10-06T13:07:18.926Z,12.98
2022-10-06T13:09:48.765Z,13.48
2022-10-06T13:12:31.573Z,21.17
2022-10-06T13:15:19.363Z,15.80
2022-10-06T13:17:46.430Z,12.13
2022-10-06T13:20:36.296Z,17.23
2022-10-06T13:23:16.294Z,11.40
2022-10-06T13:25:47.652Z,9.93
2022-10-06T13:28:28.814Z,9.32
2022-10-06T13:31:22.082Z,15.77
2022-10-06T13:34:11.450Z,16.55
2022-10-06T13:36:41.307Z,21.00
2022-10-06T13:39:20.807Z,15.98
2022-10-06T13:42:00.372Z,16.45
2022-10-06T13:44:42.141Z,13.43
2022-10-06T13:47:18.194Z,14.48
2022-10-06T13:49:57.197Z,16.05
2022-10-06T13:52:35.842Z,13.63
2022-10-06T13:55:05.310Z,15.40
2022-10-06T13:57:36.104Z,15.65
2022-10-06T14:00:24.968Z,14.55
2022-10-06T14:03:10.063Z,16.63
2022-10-06T14:05:42.795Z,14.43
2022-10-06T14:08:23.601Z,19.98
2022-10-06T14:10:55.012Z,11.23
2022-10-06T14:13:45.623Z,21.08
2022-10-06T14:16:24.336Z,11.98
2022-10-06T14:18:58.285Z,12.18
2022-10-06T14:21:39.955Z,12.00
2022-10-06T14:24:16.141Z,12.73
2022-10-06T14:26:45.141Z,12.88
2022-10-06T14:29:16.035Z,12.55
2022-10-06T14:31:44.131Z,9.55
2022-10-06T14:34:16.458Z,11.57
2022-10-06T14:36:46.318Z,12.93
2022-10-06T14:39:15.330Z,11.27
2022-10-06T14:41:42.730Z,14.85
2022-10-06T14:44:11.983Z,14.13
2022-10-06T14:46:44.074Z,12.23
2022-10-06T14:49:13.399Z,13.70
2022-10-06T14:51:42.180Z,10.20
2022-10-06T14:54:10.464Z,11.00
2022-10-06T14:56:39.073Z,11.27
2022-10-06T14:59:09.035Z,14.55
2022-10-06T15:01:38.129Z,10.07
2022-10-06T15:04:08.309Z,10.43
2022-10-06T15:06:53.846Z,8.95
2022-10-06T15:09:21.017Z,17.65
2022-10-06T15:11:48.119Z,7.82
2022-10-06T15:14:15.330Z,8.57
2022-10-06T15:16:44.391Z,10.73
2022-10-06T15:19:12.615Z,10.70
2022-10-06T15:21:41.747Z,7.90
2022-10-06T15:24:13.099Z,8.98
2022-10-06T15:26:59.087Z,9.80
2022-10-06T15:29:26.529Z,8.70
2022-10-06T15:31:54.852Z,8.27
2022-10-06T15:34:24.312Z,11.30
2022-10-06T15:36:53.055Z,10.32
2022-10-06T15:39:22.517Z,9.20
2022-10-06T15:41:50.244Z,12.77
2022-10-06T15:44:19.559Z,8.07
2022-10-06T15:46:55.115Z,10.35
2022-10-06T15:49:24.620Z,8.38
2022-10-06T15:51:53.168Z,9.82
2022-10-06T15:54:25.262Z,8.95
2022-10-06T15:56:54.652Z,9.55
2022-10-06T15:59:23.922Z,10.45
2022-10-06T16:01:55.679Z,10.52
2022-10-06T16:04:25.595Z,7.90
2022-10-06T16:06:56.882Z,9.25
2022-10-06T16:09:29.390Z,6.70
2022-10-06T16:11:58.048Z,9.10
2022-10-06T16:14:26.411Z,8.18
2022-10-06T16:16:58.918Z,7.75
2022-10-06T16:19:27.855Z,10.40
2022-10-06T16:21:58.892Z,15.00
2022-10-06T16:24:26.834Z,12.68
2022-10-06T16:26:54.299Z,9.93
2022-10-06T16:29:22.095Z,9.00
2022-10-06T16:31:49.562Z,12.02
2022-10-06T16:34:16.911Z,12.73
2022-10-06T16:36:44.508Z,15.20
2022-10-06T16:39:19.793Z,13.00
2022-10-06T16:41:47.671Z,11.13
2022-10-06T16:44:14.829Z,15.43
2022-10-06T16:46:42.521Z,13.82
2022-10-06T16:49:10.043Z,14.68
2022-10-06T16:51:40.180Z,14.50
2022-10-06T16:54:09.331Z,15.23
2022-10-06T16:56:47.901Z,13.35
2022-10-06T16:59:17.494Z,14.15
2022-10-06T17:01:45.591Z,13.35
2022-10-06T17:04:21.018Z,10.82
2022-10-06T17:06:56.715Z,12.27
2022-10-06T17:09:28.683Z,14.35
2022-10-06T17:12:00.749Z,11.88
2022-10-06T17:14:30.513Z,14.57
2022-10-06T17:16:58.725Z,10.35
2022-10-06T17:19:28.782Z,12.63
2022-10-06T17:21:59.381Z,15.98
2022-10-06T17:24:28.995Z,14.35
2022-10-06T17:26:57.580Z,11.35
2022-10-06T17:29:25.803Z,11.15
2022-10-06T17:31:58.499Z,10.52
2022-10-06T17:34:31.401Z,10.05
2022-10-06T17:37:01.027Z,10.63
2022-10-06T17:39:28.151Z,14.57
2022-10-06T17:41:55.298Z,12.00
2022-10-06T17:44:26.313Z,19.35
2022-10-06T17:46:55.633Z,14.45
2022-10-06T17:49:24.221Z,16.25
2022-10-06T17:51:53.498Z,18.13
2022-10-06T17:54:23.240Z,14.98
2022-10-06T17:56:52.942Z,23.67
2022-10-06T17:59:28.323Z,16.30
2022-10-06T18:01:57.584Z,22.67
2022-10-06T18:04:26.996Z,16.77
2022-10-06T18:06:54.568Z,22.23
2022-10-06T18:09:22.211Z,20.83
2022-10-06T18:11:55.430Z,23.05
2022-10-06T18:14:25.839Z,23.75
2022-10-06T18:16:59.030Z,18.40
2022-10-06T18:19:34.326Z,26.35
2022-10-06T18:22:11.519Z,23.85
2022-10-06T18:24:40.034Z,19.33
2022-10-06T18:27:08.082Z,22.20
2022-10-06T18:29:38.193Z,19.45
2022-10-06T18:36:12.409Z,17.33
2022-10-06T18:37:41.763Z,16.98
2022-10-06T18:40:09.934Z,16.38
2022-10-06T18:42:39.068Z,16.65
2022-10-06T18:45:26.854Z,17.85
2022-10-06T18:48:12.281Z,15.65
2022-10-06T18:50:39.930Z,16.15
2022-10-06T18:53:07.142Z,17.90
2022-10-06T18:55:34.849Z,19.60
2022-10-06T18:58:02.474Z,17.17
2022-10-06T19:00:29.560Z,16.48
2022-10-06T19:02:56.878Z,15.35
2022-10-06T19:05:24.213Z,18.83
2022-10-06T19:07:54.262Z,20.17
2022-10-06T19:10:22.041Z,17.70
2022-10-06T19:12:49.607Z,22.77
2022-10-06T19:15:20.630Z,31.77
2022-10-06T19:17:49.450Z,25.30
2022-10-06T19:20:18.138Z,21.58
2022-10-06T19:22:45.321Z,16.50
2022-10-06T19:25:13.017Z,17.20
2022-10-06T19:27:40.476Z,17.48
2022-10-06T19:30:07.888Z,20.52
2022-10-06T19:32:35.083Z,16.33
2022-10-06T19:35:05.189Z,22.15
2022-10-06T19:37:34.953Z,18.23
2022-10-06T19:40:02.065Z,16.80
2022-10-06T19:42:47.250Z,19.55
2022-10-06T19:45:16.001Z,19.48
2022-10-06T19:47:44.817Z,19.77
2022-10-06T19:50:13.404Z,19.15
2022-10-06T19:52:41.369Z,17.63
2022-10-06T19:55:08.811Z,19.98
2022-10-06T19:57:36.013Z,17.55
2022-10-06T20:00:04.848Z,16.90
2022-10-06T20:02:42.910Z,19.38
2022-10-06T20:05:16.043Z,24.58
2022-10-06T20:07:45.562Z,21.07
2022-10-06T20:10:13.804Z,21.85
2022-10-06T20:12:41.678Z,21.83
2022-10-06T20:15:09.887Z,24.48
2022-10-06T20:17:37.500Z,20.15
2022-10-06T20:20:04.967Z,23.30
2022-10-06T20:22:32.046Z,21.90
2022-10-06T20:25:00.634Z,20.58
2022-10-06T20:27:27.759Z,23.42
2022-10-06T20:29:54.974Z,23.90
2022-10-06T20:32:23.064Z,22.02
2022-10-06T20:34:50.177Z,25.77
2022-10-06T20:37:17.270Z,21.90
2022-10-06T20:40:02.745Z,25.83
2022-10-06T20:42:31.221Z,22.20
2022-10-06T20:44:58.627Z,20.70
2022-10-06T20:47:25.778Z,23.65
2022-10-06T20:49:55.122Z,21.55
2022-10-06T20:52:23.822Z,22.65
2022-10-06T20:54:51.108Z,25.08
2022-10-06T20:57:18.300Z,27.67
2022-10-06T20:59:46.032Z,24.70
2022-10-06T21:02:13.322Z,24.85
2022-10-06T21:04:43.392Z,25.38
2022-10-06T21:07:11.108Z,25.35
2022-10-06T21:09:38.207Z,27.08
2022-10-06T21:12:05.298Z,25.92
2022-10-06T21:14:34.095Z,24.52
2022-10-06T21:17:01.660Z,26.58
2022-10-06T21:19:29.885Z,26.15
2022-10-06T21:21:56.998Z,27.42
2022-10-06T21:24:24.148Z,28.48
2022-10-06T21:26:52.578Z,28.33
2022-10-06T21:29:20.448Z,29.40
2022-10-06T21:31:47.753Z,27.15
2022-10-06T21:34:14.908Z,33.72
2022-10-06T21:36:43.352Z,27.58
2022-10-06T21:39:11.513Z,34.75
2022-10-06T21:41:39.703Z,36.15
2022-10-06T21:44:15.011Z,32.15
2022-10-06T21:46:55.402Z,31.25
2022-10-06T21:49:24.629Z,31.63
2022-10-06T21:51:54.304Z,31.08
2022-10-06T21:54:22.757Z,28.08
2022-10-06T21:56:50.328Z,35.08
2022-10-06T21:59:17.581Z,31.33
2022-10-06T22:01:45.910Z,33.92
2022-10-06T22:04:14.468Z,31.85
2022-10-06T22:06:42.965Z,32.63
2022-10-06T22:09:14.455Z,35.20
2022-10-06T22:11:41.828Z,33.05
2022-10-06T22:14:12.736Z,37.33
2022-10-06T22:16:40.653Z,37.70
2022-10-06T22:19:10.304Z,35.40
2022-10-06T22:21:39.576Z,34.35
2022-10-06T22:24:11.988Z,38.17
2022-10-06T22:26:40.522Z,38.10
2022-10-06T22:29:10.578Z,35.53
2022-10-06T22:31:39.557Z,31.65
2022-10-06T22:34:07.689Z,32.17
2022-10-06T22:36:35.136Z,33.92
2022-10-06T22:39:03.291Z,34.15
2022-10-06T22:41:31.337Z,34.42
2022-10-06T22:43:59.440Z,40.03
2022-10-06T22:46:32.893Z,38.97
2022-10-06T22:49:00.281Z,39.22
2022-10-06T22:51:27.853Z,34.05
2022-10-06T22:53:58.138Z,33.53
2022-10-06T22:56:31.376Z,35.25
2022-10-06T22:59:00.022Z,44.20
2022-10-06T23:01:29.117Z,39.83
2022-10-06T23:03:57.229Z,37.85
2022-10-06T23:06:24.846Z,36.85
2022-10-06T23:08:52.371Z,41.53
2022-10-06T23:11:20.756Z,35.40
2022-10-06T23:13:50.086Z,38.80
2022-10-06T23:16:18.970Z,33.50
2022-10-06T23:18:47.403Z,33.28
2022-10-06T23:21:23.908Z,34.05
2022-10-06T23:24:00.324Z,36.38
2022-10-06T23:26:27.746Z,33.08
2022-10-06T23:28:57.687Z,34.38
2022-10-06T23:31:25.366Z,34.00
2022-10-06T23:33:54.068Z,33.08
2022-10-06T23:36:21.233Z,35.10
2022-10-06T23:38:48.339Z,31.17
2022-10-06T23:41:16.045Z,26.75
2022-10-06T23:43:43.537Z,25.73
2022-10-06T23:46:11.103Z,31.95
2022-10-06T23:48:38.273Z,24.35
2022-10-06T23:51:08.273Z,26.92
2022-10-06T23:53:36.141Z,25.42
2022-10-06T23:56:04.516Z,23.77
2022-10-06T23:58:32.272Z,23.35
